createdAt,value
2022-11-12T00:00:36.931Z,5.46
2022-11-12T00:03:22.462Z,5.47
2022-11-12T00:06:08.028Z,5.46
2022-11-12T00:08:53.554Z,5.46
2022-11-12T00:11:38.994Z,5.46
2022-11-12T00:14:24.325Z,5.45
2022-11-12T00:17:09.933Z,5.44
2022-11-12T00:19:55.313Z,5.43
2022-11-12T00:22:41.018Z,5.42
2022-11-12T00:25:26.700Z,5.40
2022-11-12T00:28:12.243Z,5.39
2022-11-12T00:30:57.746Z,5.40
2022-11-12T00:33:43.433Z,5.40
2022-11-12T00:36:28.615Z,5.42
2022-11-12T00:39:14.405Z,5.44
2022-11-12T00:41:59.751Z,5.46
2022-11-12T00:44:45.358Z,5.49
2022-11-12T00:47:30.892Z,5.51
2022-11-12T00:50:16.944Z,5.54
2022-11-12T00:53:02.287Z,5.57
2022-11-12T00:55:47.685Z,5.59
2022-11-12T00:58:34.388Z,5.61
2022-11-12T01:01:20.141Z,5.62
2022-11-12T01:04:05.674Z,5.63
2022-11-12T01:06:51.039Z,5.63
2022-11-12T01:09:36.482Z,5.65
2022-11-12T01:12:22.045Z,5.67
2022-11-12T01:15:08.117Z,5.68
2022-11-12T01:17:53.566Z,5.69
2022-11-12T01:20:39.277Z,5.70
2022-11-12T01:23:24.553Z,5.71
2022-11-12T01:26:17.778Z,5.70
2022-11-12T01:29:03.361Z,5.74
2022-11-12T01:31:48.797Z,5.75
2022-11-12T01:34:34.563Z,5.76
2022-11-12T01:37:20.153Z,5.74
2022-11-12T01:40:06.505Z,5.78
2022-11-12T01:42:54.949Z,5.78
2022-11-12T01:45:40.497Z,5.77
2022-11-12T01:48:34.119Z,5.76
2022-11-12T01:51:23.340Z,5.73
2022-11-12T01:54:09.597Z,5.72
2022-11-12T01:56:55.001Z,5.71
2022-11-12T01:59:44.776Z,5.70
2022-11-12T02:02:29.881Z,5.69
2022-11-12T02:05:15.286Z,5.69
2022-11-12T02:08:01.185Z,5.66
2022-11-12T02:10:46.940Z,5.69
2022-11-12T02:13:51.405Z,5.68
2022-11-12T02:16:41.346Z,5.67
2022-11-12T02:19:26.941Z,5.65
2022-11-12T02:22:12.402Z,5.63
2022-11-12T02:24:57.898Z,5.63
2022-11-12T02:27:43.656Z,5.61
2022-11-12T02:30:43.086Z,5.60
2022-11-12T02:33:28.404Z,5.59
2022-11-12T02:36:13.924Z,5.57
2022-11-12T02:38:59.305Z,5.56
2022-11-12T02:41:44.983Z,5.56
2022-11-12T02:44:30.471Z,5.51
2022-11-12T02:47:15.978Z,5.57
2022-11-12T02:50:01.157Z,5.57
2022-11-12T02:52:46.734Z,5.57
2022-11-12T02:55:31.774Z,5.57
2022-11-12T02:58:17.302Z,5.57
2022-11-12T03:01:02.915Z,5.58
2022-11-12T03:03:48.328Z,5.57
2022-11-12T03:06:33.753Z,5.57
2022-11-12T03:09:19.140Z,5.56
2022-11-12T03:12:04.703Z,5.53
2022-11-12T03:14:49.964Z,5.51
2022-11-12T03:17:35.372Z,5.48
2022-11-12T03:20:20.789Z,5.45
2022-11-12T03:23:07.755Z,5.42
2022-11-12T03:25:53.031Z,5.40
2022-11-12T03:28:38.482Z,5.39
2022-11-12T03:31:23.629Z,5.40
2022-11-12T03:34:08.894Z,5.41
2022-11-12T03:36:54.250Z,5.42
2022-11-12T03:39:39.598Z,5.43
2022-11-12T03:42:24.744Z,5.45
2022-11-12T03:45:10.479Z,5.46
2022-11-12T03:47:56.467Z,5.49
2022-11-12T03:50:41.822Z,5.52
2022-11-12T03:53:27.238Z,5.55
2022-11-12T03:56:12.649Z,5.56
2022-11-12T03:58:58.259Z,5.57
2022-11-12T04:01:43.554Z,5.56
2022-11-12T04:04:48.872Z,5.59
2022-11-12T04:07:54.239Z,5.59
2022-11-12T04:10:39.819Z,5.60
2022-11-12T04:13:28.014Z,5.62
2022-11-12T04:16:33.996Z,5.65
2022-11-12T04:19:38.009Z,5.69
2022-11-12T04:22:23.416Z,5.73
2022-11-12T04:25:27.506Z,5.77
2022-11-12T04:28:12.472Z,5.80
2022-11-12T04:30:57.750Z,5.84
2022-11-12T04:33:43.149Z,5.87
2022-11-12T04:36:28.218Z,5.90
2022-11-12T04:39:13.464Z,5.89
2022-11-12T04:42:28.199Z,5.95
2022-11-12T04:45:13.125Z,5.99
2022-11-12T04:47:58.638Z,6.01
2022-11-12T04:50:45.087Z,6.04
2022-11-12T04:53:30.609Z,6.04
2022-11-12T04:56:16.071Z,6.11
2022-11-12T04:59:01.335Z,6.15
2022-11-12T05:01:46.771Z,6.17
2022-11-12T05:04:31.953Z,6.20
2022-11-12T05:07:17.583Z,6.22
2022-11-12T05:10:02.875Z,6.24
2022-11-12T05:12:48.347Z,6.27
2022-11-12T05:15:33.888Z,6.30
2022-11-12T05:18:19.164Z,6.33
2022-11-12T05:21:24.651Z,6.35
2022-11-12T05:24:22.394Z,6.35
2022-11-12T05:27:17.379Z,6.41
2022-11-12T05:30:03.209Z,6.43
2022-11-12T05:32:48.397Z,6.46
2022-11-12T05:35:33.901Z,6.48
2022-11-12T05:38:19.502Z,6.50
2022-11-12T05:41:05.165Z,6.51
2022-11-12T05:43:50.608Z,6.52
2022-11-12T05:46:36.249Z,6.53
2022-11-12T05:49:22.034Z,6.55
2022-11-12T05:52:07.552Z,6.55
2022-11-12T05:54:53.029Z,6.57
2022-11-12T05:57:38.345Z,6.57
2022-11-12T06:00:24.157Z,6.58
2022-11-12T06:03:10.518Z,6.60
2022-11-12T06:05:55.571Z,6.62
2022-11-12T06:08:41.065Z,6.63
2022-11-12T06:11:26.393Z,6.66
2022-11-12T06:14:11.701Z,6.66
2022-11-12T06:16:57.547Z,6.72
2022-11-12T06:19:42.981Z,6.76
2022-11-12T06:22:28.486Z,6.80
2022-11-12T06:25:13.795Z,6.83
2022-11-12T06:27:59.118Z,6.86
2022-11-12T06:30:44.481Z,6.87
2022-11-12T06:33:29.849Z,6.90
2022-11-12T06:36:17.129Z,6.93
2022-11-12T06:39:02.459Z,6.93
2022-11-12T06:41:47.858Z,6.98
2022-11-12T06:44:33.098Z,7.01
2022-11-12T06:47:18.358Z,7.08
2022-11-12T06:50:03.756Z,7.14
2022-11-12T06:52:49.020Z,7.18
2022-11-12T06:55:34.793Z,7.24
2022-11-12T06:58:20.206Z,7.30
2022-11-12T07:01:12.048Z,7.35
2022-11-12T07:03:57.565Z,7.42
2022-11-12T07:06:42.759Z,7.49
2022-11-12T07:09:28.160Z,7.54
2022-11-12T07:12:13.677Z,7.58
2022-11-12T07:14:59.130Z,7.61
2022-11-12T07:17:45.903Z,7.66
2022-11-12T07:20:31.129Z,7.66
2022-11-12T07:23:16.123Z,7.70
2022-11-12T07:26:24.354Z,7.72
2022-11-12T07:29:09.542Z,7.78
2022-11-12T07:31:54.953Z,7.84
2022-11-12T07:34:40.417Z,7.90
2022-11-12T07:37:25.907Z,7.98
2022-11-12T07:40:11.955Z,8.05
2022-11-12T07:42:59.218Z,8.11
2022-11-12T07:45:44.647Z,8.16
2022-11-12T07:48:30.363Z,8.21
2022-11-12T07:51:19.950Z,8.27
2022-11-12T07:54:05.370Z,8.32
2022-11-12T07:56:50.755Z,8.39
2022-11-12T07:59:36.151Z,8.45
2022-11-12T08:02:21.732Z,8.51
2022-11-12T08:05:16.567Z,8.59
2022-11-12T08:08:05.848Z,8.67
2022-11-12T08:10:55.429Z,8.75
2022-11-12T08:13:40.730Z,8.81
2022-11-12T08:16:26.241Z,8.88
2022-11-12T08:19:11.594Z,8.95
2022-11-12T08:21:56.962Z,9.03
2022-11-12T08:24:42.341Z,9.11
2022-11-12T08:27:27.999Z,9.17
2022-11-12T08:30:13.955Z,9.22
2022-11-12T08:33:18.290Z,9.24
2022-11-12T08:36:07.858Z,9.26
2022-11-12T08:38:53.841Z,9.29
2022-11-12T08:41:38.928Z,9.34
2022-11-12T08:44:24.570Z,9.39
2022-11-12T08:47:10.009Z,9.45
2022-11-12T08:49:55.396Z,9.51
2022-11-12T08:52:41.115Z,9.57
2022-11-12T08:55:26.246Z,9.62
2022-11-12T08:58:11.375Z,9.66
2022-11-12T09:00:56.895Z,9.69
2022-11-12T09:03:42.400Z,9.72
2022-11-12T09:06:27.938Z,9.75
2022-11-12T09:09:13.448Z,9.78
2022-11-12T09:11:58.880Z,9.82
2022-11-12T09:14:44.343Z,9.86
2022-11-12T09:17:30.977Z,9.89
2022-11-12T09:20:16.217Z,9.93
2022-11-12T09:23:02.985Z,9.98
2022-11-12T09:25:48.476Z,10.01
2022-11-12T09:28:33.976Z,10.05
2022-11-12T09:31:19.420Z,10.08
2022-11-12T09:34:04.997Z,10.11
2022-11-12T09:36:50.243Z,10.13
2022-11-12T09:39:35.614Z,10.14
2022-11-12T09:42:22.005Z,10.15
2022-11-12T09:45:18.782Z,10.14
2022-11-12T09:48:06.786Z,10.20
2022-11-12T09:50:56.929Z,10.23
2022-11-12T09:53:58.021Z,10.24
2022-11-12T09:56:43.419Z,10.42
2022-11-12T09:59:32.086Z,10.51
2022-11-12T10:02:33.856Z,10.57
2022-11-12T10:05:25.185Z,10.66
2022-11-12T10:08:33.367Z,10.77
2022-11-12T10:11:25.394Z,10.87
2022-11-12T10:14:23.134Z,10.94
2022-11-12T10:17:50.590Z,11.00
2022-11-12T10:20:46.552Z,11.05
2022-11-12T10:23:43.106Z,11.08
2022-11-12T10:26:28.735Z,11.07
2022-11-12T10:29:20.065Z,11.06
2022-11-12T10:32:05.192Z,11.04
2022-11-12T10:34:50.814Z,11.01
2022-11-12T10:37:59.278Z,10.99
2022-11-12T10:40:44.412Z,10.97
2022-11-12T10:43:29.873Z,10.97
2022-11-12T10:49:01.570Z,11.06
2022-11-12T10:51:56.825Z,11.04
2022-11-12T10:54:42.342Z,11.08
2022-11-12T10:57:27.830Z,11.07
2022-11-12T11:00:13.165Z,11.04
2022-11-12T11:02:58.991Z,11.01
2022-11-12T11:05:59.918Z,10.96
2022-11-12T11:08:49.835Z,10.94
2022-11-12T11:11:34.988Z,10.90
2022-11-12T11:14:23.446Z,10.88
2022-11-12T11:17:17.500Z,10.85
2022-11-12T11:20:13.991Z,10.84
2022-11-12T11:23:24.238Z,10.86
2022-11-12T11:26:51.838Z,10.91
2022-11-12T11:29:52.229Z,10.97
2022-11-12T11:32:53.049Z,11.04
2022-11-12T11:35:47.801Z,11.10
2022-11-12T11:38:41.616Z,11.15
2022-11-12T11:42:02.450Z,11.22
2022-11-12T11:45:13.581Z,11.32
2022-11-12T11:48:14.530Z,11.40
2022-11-12T11:51:06.954Z,11.47
2022-11-12T11:54:24.549Z,11.53
2022-11-12T11:57:20.024Z,11.58
2022-11-12T12:00:15.768Z,11.61
2022-11-12T12:03:15.123Z,11.64
2022-11-12T12:06:18.391Z,11.65
2022-11-12T12:09:39.174Z,11.67
2022-11-12T12:12:40.940Z,11.69
2022-11-12T12:15:47.014Z,11.68
2022-11-12T12:18:40.901Z,11.66
2022-11-12T12:21:26.520Z,11.62
2022-11-12T12:24:30.427Z,11.58
2022-11-12T12:27:24.476Z,11.53
2022-11-12T12:30:22.606Z,11.50
2022-11-12T12:33:17.012Z,11.46
2022-11-12T12:36:04.073Z,11.46
2022-11-12T12:38:53.041Z,11.48
2022-11-12T12:41:43.863Z,11.47
2022-11-12T12:44:49.628Z,11.54
2022-11-12T12:47:39.411Z,11.57
2022-11-12T12:50:24.534Z,11.57
2022-11-12T12:53:12.679Z,11.55
2022-11-12T12:55:58.853Z,11.51
2022-11-12T12:58:45.276Z,11.47
2022-11-12T13:01:33.263Z,11.44
2022-11-12T13:04:18.715Z,11.41
2022-11-12T13:07:09.922Z,11.41
2022-11-12T13:10:34.755Z,11.41
2022-11-12T13:13:19.833Z,11.42
2022-11-12T13:16:05.363Z,11.40
2022-11-12T13:18:50.846Z,11.39
2022-11-12T13:21:36.035Z,11.38
2022-11-12T13:24:51.170Z,11.37
2022-11-12T13:27:39.537Z,11.33
2022-11-12T13:30:24.951Z,11.30
2022-11-12T13:33:21.704Z,11.25
2022-11-12T13:36:36.227Z,11.20
2022-11-12T13:39:21.701Z,11.15
2022-11-12T13:42:35.538Z,11.10
2022-11-12T13:45:23.770Z,11.04
2022-11-12T13:48:12.840Z,10.99
2022-11-12T13:51:03.561Z,10.93
2022-11-12T13:53:49.018Z,10.86
2022-11-12T13:56:35.314Z,10.79
2022-11-12T13:59:22.847Z,10.75
2022-11-12T14:02:25.659Z,10.72
2022-11-12T14:05:15.693Z,10.67
2022-11-12T14:08:28.971Z,10.64
2022-11-12T14:11:29.367Z,10.60
2022-11-12T14:14:40.562Z,10.56
2022-11-12T14:17:38.302Z,10.53
2022-11-12T14:20:26.197Z,10.50
2022-11-12T14:23:12.980Z,10.47
2022-11-12T14:25:58.390Z,10.44
2022-11-12T14:28:43.816Z,10.42
2022-11-12T14:31:29.211Z,10.40
2022-11-12T14:34:32.283Z,10.37
2022-11-12T14:37:41.418Z,10.35
2022-11-12T14:40:29.239Z,10.32
2022-11-12T14:43:31.409Z,10.28
2022-11-12T14:46:38.409Z,10.24
2022-11-12T14:49:44.783Z,10.21
2022-11-12T14:52:36.166Z,10.19
2022-11-12T14:55:26.929Z,10.17
2022-11-12T14:58:16.221Z,10.14
2022-11-12T15:01:44.990Z,10.13
2022-11-12T15:04:26.114Z,10.12
2022-11-12T15:07:30.761Z,10.11
2022-11-12T15:10:28.355Z,10.10
2022-11-12T15:13:21.041Z,10.09
2022-11-12T15:16:07.458Z,10.08
2022-11-12T15:19:14.359Z,10.07
2022-11-12T15:22:03.519Z,10.05
2022-11-12T15:24:49.691Z,10.06
2022-11-12T15:27:40.052Z,10.06
2022-11-12T15:30:27.476Z,10.05
2022-11-12T15:33:13.067Z,10.05
2022-11-12T15:35:59.473Z,10.04
2022-11-12T15:38:48.979Z,10.04
2022-11-12T15:41:34.095Z,10.05
2022-11-12T15:44:19.378Z,10.04
2022-11-12T15:47:05.064Z,10.03
2022-11-12T15:49:58.758Z,10.01
2022-11-12T15:52:44.096Z,10.00
2022-11-12T15:55:29.156Z,9.99
2022-11-12T15:58:18.629Z,9.98
2022-11-12T16:01:04.096Z,9.96
2022-11-12T16:03:49.141Z,9.94
2022-11-12T16:06:34.462Z,9.93
2022-11-12T16:09:19.554Z,9.92
2022-11-12T16:12:05.261Z,9.93
2022-11-12T16:14:50.614Z,9.91
2022-11-12T16:17:35.854Z,9.91
2022-11-12T16:20:23.268Z,9.92
2022-11-12T16:23:08.554Z,9.92
2022-11-12T16:25:54.216Z,9.92
2022-11-12T16:28:42.193Z,9.92
2022-11-12T16:31:27.420Z,9.92
2022-11-12T16:34:12.773Z,9.90
2022-11-12T16:36:58.331Z,9.87
2022-11-12T16:39:43.769Z,9.85
2022-11-12T16:42:28.898Z,9.85
2022-11-12T16:45:18.673Z,9.85
2022-11-12T16:48:10.410Z,9.83
2022-11-12T16:50:55.688Z,9.80
2022-11-12T16:53:40.986Z,9.79
2022-11-12T16:56:26.238Z,9.79
2022-11-12T16:59:14.378Z,9.78
2022-11-12T17:01:59.682Z,9.77
2022-11-12T17:04:44.754Z,9.76
2022-11-12T17:07:30.123Z,9.73
2022-11-12T17:10:16.364Z,9.67
2022-11-12T17:13:01.893Z,9.70
2022-11-12T17:15:47.362Z,9.70
2022-11-12T17:18:32.777Z,9.69
2022-11-12T17:21:18.524Z,9.69
2022-11-12T17:24:04.350Z,9.65
2022-11-12T17:26:49.961Z,9.68
2022-11-12T17:29:35.360Z,9.67
2022-11-12T17:32:20.909Z,9.64
2022-11-12T17:35:06.906Z,9.63
2022-11-12T17:37:52.313Z,9.63
2022-11-12T17:40:38.402Z,9.61
2022-11-12T17:43:24.000Z,9.62
2022-11-12T17:46:09.513Z,9.62
2022-11-12T17:48:55.294Z,9.62
2022-11-12T17:51:40.557Z,9.61
2022-11-12T17:54:25.867Z,9.60
2022-11-12T17:57:13.290Z,9.61
2022-11-12T17:59:58.704Z,9.59
2022-11-12T18:02:44.173Z,9.56
2022-11-12T18:05:30.547Z,9.54
2022-11-12T18:08:16.186Z,9.52
2022-11-12T18:11:02.455Z,9.52
2022-11-12T18:13:48.026Z,9.51
2022-11-12T18:16:33.618Z,9.48
2022-11-12T18:19:19.297Z,9.46
2022-11-12T18:22:04.980Z,9.44
2022-11-12T18:24:50.766Z,9.43
2022-11-12T18:27:36.246Z,9.42
2022-11-12T18:30:21.728Z,9.41
2022-11-12T18:33:07.134Z,9.41
2022-11-12T18:36:06.600Z,9.37
2022-11-12T18:38:52.644Z,9.40
2022-11-12T18:41:37.832Z,9.38
2022-11-12T18:44:26.122Z,9.37
2022-11-12T18:47:11.731Z,9.36
2022-11-12T18:49:57.164Z,9.37
2022-11-12T18:52:42.410Z,9.36
2022-11-12T18:55:27.949Z,9.36
2022-11-12T18:58:13.588Z,9.35
2022-11-12T19:01:06.437Z,9.30
2022-11-12T19:03:52.881Z,9.31
2022-11-12T19:06:38.134Z,9.30
2022-11-12T19:09:23.631Z,9.29
2022-11-12T19:12:09.273Z,9.29
2022-11-12T19:14:54.793Z,9.28
2022-11-12T19:17:40.176Z,9.28
2022-11-12T19:20:25.541Z,9.27
2022-11-12T19:23:11.107Z,9.27
2022-11-12T19:25:56.779Z,9.27
2022-11-12T19:28:42.544Z,9.26
2022-11-12T19:31:30.745Z,9.26
2022-11-12T19:34:16.117Z,9.27
2022-11-12T19:40:07.618Z,9.28
2022-11-12T19:42:53.139Z,9.29
2022-11-12T19:45:38.456Z,9.26
2022-11-12T19:48:24.195Z,9.30
2022-11-12T19:51:10.490Z,9.30
2022-11-12T19:53:55.598Z,9.30
2022-11-12T19:56:41.002Z,9.31
2022-11-12T19:59:26.444Z,9.31
2022-11-12T20:02:12.169Z,9.31
2022-11-12T20:04:57.384Z,9.32
2022-11-12T20:07:42.830Z,9.32
2022-11-12T20:10:28.409Z,9.31
2022-11-12T20:13:14.028Z,9.31
2022-11-12T20:15:59.419Z,9.30
2022-11-12T20:18:49.827Z,9.31
2022-11-12T20:21:36.316Z,9.31
2022-11-12T20:24:21.847Z,9.31
2022-11-12T20:27:07.939Z,9.30
2022-11-12T20:29:53.277Z,9.30
2022-11-12T20:32:38.811Z,9.29
2022-11-12T20:35:24.578Z,9.28
2022-11-12T20:38:10.050Z,9.27
2022-11-12T20:41:00.148Z,9.25
2022-11-12T20:43:45.698Z,9.26
2022-11-12T20:46:31.021Z,9.24
2022-11-12T20:49:16.365Z,9.24
2022-11-12T20:52:01.808Z,9.23
2022-11-12T20:54:47.173Z,9.24
2022-11-12T20:57:32.741Z,9.24
2022-11-12T21:00:23.768Z,9.26
2022-11-12T21:03:09.318Z,9.29
2022-11-12T21:05:59.594Z,9.30
2022-11-12T21:08:45.047Z,9.31
2022-11-12T21:11:30.513Z,9.32
2022-11-12T21:14:15.891Z,9.33
2022-11-12T21:17:01.482Z,9.31
2022-11-12T21:19:46.883Z,9.35
2022-11-12T21:22:32.259Z,9.34
2022-11-12T21:25:17.666Z,9.34
2022-11-12T21:28:04.519Z,9.35
2022-11-12T21:30:49.888Z,9.35
2022-11-12T21:33:35.481Z,9.37
2022-11-12T21:36:21.093Z,9.40
2022-11-12T21:39:06.647Z,9.42
2022-11-12T21:41:53.924Z,9.41
2022-11-12T21:44:39.341Z,9.40
2022-11-12T21:47:24.705Z,9.39
2022-11-12T21:50:10.065Z,9.39
2022-11-12T21:52:58.547Z,9.39
2022-11-12T21:55:43.574Z,9.39
2022-11-12T21:58:29.800Z,9.36
2022-11-12T22:01:20.094Z,9.39
2022-11-12T22:04:05.948Z,9.40
2022-11-12T22:06:51.283Z,9.39
2022-11-12T22:09:36.869Z,9.39
2022-11-12T22:12:22.202Z,9.39
2022-11-12T22:15:08.148Z,9.36
2022-11-12T22:17:53.910Z,9.35
2022-11-12T22:20:39.425Z,9.32
2022-11-12T22:23:25.467Z,9.29
2022-11-12T22:26:13.111Z,9.28
2022-11-12T22:28:58.869Z,9.25
2022-11-12T22:31:44.310Z,9.22
2022-11-12T22:34:29.710Z,9.19
2022-11-12T22:37:15.077Z,9.16
2022-11-12T22:40:00.641Z,9.14
2022-11-12T22:42:46.177Z,9.12
2022-11-12T22:45:31.414Z,9.11
2022-11-12T22:48:16.896Z,9.10
2022-11-12T22:51:03.779Z,9.10
2022-11-12T22:53:53.090Z,9.09
2022-11-12T22:56:39.800Z,9.06
2022-11-12T22:59:25.074Z,9.02
2022-11-12T23:02:10.683Z,8.97
2022-11-12T23:06:05.772Z,8.91
2022-11-12T23:08:51.351Z,8.85
2022-11-12T23:11:37.855Z,8.80
2022-11-12T23:14:23.453Z,8.72
2022-11-12T23:17:09.023Z,8.68
2022-11-12T23:19:54.807Z,8.61
2022-11-12T23:22:40.510Z,8.54
2022-11-12T23:25:26.135Z,8.48
2022-11-12T23:28:11.771Z,8.43
2022-11-12T23:30:57.252Z,8.38
2022-11-12T23:33:50.466Z,8.35
2022-11-12T23:36:35.683Z,8.34
2022-11-12T23:39:20.949Z,8.37
2022-11-12T23:42:06.318Z,8.37
2022-11-12T23:44:51.682Z,8.35
2022-11-12T23:47:37.039Z,8.33
2022-11-12T23:50:22.630Z,8.33
2022-11-12T23:53:07.899Z,8.34
2022-11-12T23:55:53.382Z,8.40
2022-11-12T23:58:38.642Z,8.42
